Date,TemperatureHighF,TemperatureAvgF,TemperatureLowF,DewpointHighF,DewpointAvgF,DewpointLowF,HumidityHigh,HumidityAvg,HumidityLow,PressureMaxIn,PressureMinIn,WindSpeedMaxMPH,WindSpeedAvgMPH,GustSpeedMaxMPH,PrecipitationSumIn
2013-2-1,29.0,27.8,26.0,28.0,27.3,26.0,99,97,95,0.00,40.00,5,2,13,0.01
2013-2-2,34.0,29.9,28.0,32.0,29.3,27.0,100,98,92,0.00,40.00,3,1,12,0.00
2013-2-3,37.0,30.7,20.0,34.0,30.0,19.0,100,97,86,0.00,40.00,4,1,12,0.00
2013-2-4,34.0,29.1,19.0,34.0,29.0,18.0,100,99,97,0.00,40.00,1,0,4,0.00
2013-2-5,29.0,25.0,17.0,29.0,24.7,16.0,100,99,97,0.00,40.00,1,0,4,0.00
2013-2-6,28.0,25.3,20.0,28.0,24.5,19.0,99,96,92,0.00,40.00,2,0,6,0.00
2013-2-7,30.0,25.0,23.0,28.0,24.2,22.0,99,97,91,0.00,40.00,3,1,9,0.00
2013-2-8,34.0,28.5,21.0,33.0,28.3,21.0,100,99,95,0.00,40.00,1,0,6,0.00
2013-2-9,38.0,31.7,26.0,36.0,31.1,26.0,100,97,92,0.00,40.00,3,1,10,0.00
2013-2-10,34.0,31.7,27.0,34.0,31.2,25.0,100,98,93,0.00,40.00,6,2,17,0.00
2013-2-11,26.0,20.6,16.0,25.0,16.7,13.0,97,85,71,0.00,40.00,4,2,12,0.00
2013-2-12,27.0,23.3,17.0,25.0,21.1,15.0,97,91,77,0.00,40.00,3,2,9,0.00
2013-2-13,32.0,25.6,16.0,28.0,24.0,15.0,98,94,83,0.00,40.00,2,0,6,0.00
2013-2-14,32.0,28.7,23.0,30.0,27.4,22.0,99,95,88,0.00,40.00,3,1,11,0.00
2013-2-15,29.0,23.8,11.0,29.0,20.4,9.0,100,87,68,0.00,40.00,4,2,12,0.00
2013-2-16,28.0,19.3,13.0,18.0,13.9,10.0,92,80,60,0.00,40.00,4,2,10,0.00
2013-2-17,28.0,22.1,19.0,24.0,20.2,18.0,98,92,83,0.00,40.00,3,2,9,0.00
2013-2-18,20.0,10.2,-7.0,19.0,4.9,-10.0,97,80,60,0.00,40.00,3,1,10,0.00
2013-2-19,18.0,12.2,10.0,15.0,7.6,4.0,90,81,71,0.00,40.00,5,3,16,0.00
2013-2-20,25.0,20.5,16.0,22.0,18.1,15.0,98,91,82,0.00,40.00,5,2,15,0.00
2013-2-21,31.0,25.6,19.0,26.0,24.1,18.0,99,94,81,0.00,40.00,1,0,5,0.00
2013-2-22,27.0,21.9,11.0,24.0,16.2,8.0,96,79,61,0.00,40.00,4,2,11,0.00
2013-2-23,29.0,21.7,13.0,24.0,17.9,10.0,98,85,72,0.00,40.00,4,2,11,0.00
2013-2-24,31.0,24.1,20.0,27.0,22.4,12.0,98,93,83,0.00,40.00,2,1,8,0.00
2013-2-25,37.0,27.4,4.0,30.0,22.7,2.0,95,82,67,0.00,40.00,5,2,14,0.00
2013-2-26,39.0,31.1,28.0,26.0,22.1,20.0,84,70,50,0.00,40.00,6,3,14,0.00
2013-2-27,36.0,28.6,23.0,25.0,21.2,14.0,90,74,59,0.00,40.00,5,2,14,0.00
2013-2-28,35.0,28.6,25.0,30.0,26.6,23.0,99,92,73,0.00,40.00,1,0,4,0.00